createdAt,value
2023-04-02T00:00:11.341Z,10.25
2023-04-02T00:01:36.919Z,10.20
2023-04-02T00:02:48.504Z,10.22
2023-04-02T00:03:54.260Z,10.26
2023-04-02T00:05:18.260Z,10.25
2023-04-02T00:06:25.789Z,10.23
2023-04-02T00:07:33.453Z,10.26
2023-04-02T00:08:41.160Z,10.25
2023-04-02T00:09:43.005Z,10.28
2023-04-02T00:11:02.541Z,10.26
2023-04-02T00:12:18.273Z,10.25
2023-04-02T00:13:34.064Z,10.26
2023-04-02T00:14:36.285Z,10.23
2023-04-02T00:15:38.887Z,10.19
2023-04-02T00:16:40.686Z,10.22
2023-04-02T00:17:42.387Z,10.22
2023-04-02T00:18:48.719Z,10.19
2023-04-02T00:19:54.343Z,10.16
2023-04-02T00:21:03.817Z,10.18
2023-04-02T00:22:12.082Z,10.18
2023-04-02T00:23:13.957Z,10.10
2023-04-02T00:24:20.474Z,10.15
2023-04-02T00:25:22.213Z,10.15
2023-04-02T00:26:33.584Z,10.13
2023-04-02T00:27:35.775Z,10.16
2023-04-02T00:28:37.355Z,10.15
2023-04-02T00:29:49.712Z,10.15
2023-04-02T00:30:54.613Z,10.15
2023-04-02T00:31:56.278Z,10.18
2023-04-02T00:32:57.923Z,10.19
2023-04-02T00:34:00.655Z,10.13
2023-04-02T00:35:02.375Z,10.18
2023-04-02T00:36:06.311Z,10.18
2023-04-02T00:37:07.964Z,10.13
2023-04-02T00:38:18.172Z,10.13
2023-04-02T00:39:24.444Z,10.18
2023-04-02T00:40:28.130Z,10.15
2023-04-02T00:41:31.118Z,10.16
2023-04-02T00:42:32.744Z,10.18
2023-04-02T00:43:36.640Z,10.09
2023-04-02T00:44:42.867Z,10.09
2023-04-02T00:45:50.871Z,10.10
2023-04-02T00:46:52.727Z,10.13
2023-04-02T00:47:54.871Z,10.12
2023-04-02T00:49:18.652Z,10.16
2023-04-02T00:50:24.992Z,10.19
2023-04-02T00:51:32.804Z,10.15
2023-04-02T00:52:34.399Z,10.12
2023-04-02T00:53:36.020Z,10.10
2023-04-02T00:54:42.822Z,10.12
2023-04-02T00:55:44.409Z,10.10
2023-04-02T00:56:47.822Z,10.12
2023-04-02T00:57:50.396Z,10.09
2023-04-02T00:58:53.254Z,10.06
2023-04-02T01:00:13.921Z,10.06
2023-04-02T01:01:17.486Z,10.12
2023-04-02T01:02:22.646Z,10.09
2023-04-02T01:03:24.613Z,10.08
2023-04-02T01:04:34.674Z,10.12
2023-04-02T01:05:36.889Z,10.10
2023-04-02T01:06:39.238Z,10.10
2023-04-02T01:07:40.815Z,10.09
2023-04-02T01:09:06.845Z,10.08
2023-04-02T01:10:47.118Z,10.08
2023-04-02T01:12:07.316Z,10.05
2023-04-02T01:13:12.272Z,10.06
2023-04-02T01:14:25.786Z,10.02
2023-04-02T01:15:38.981Z,10.03
2023-04-02T01:17:20.132Z,9.98
2023-04-02T01:18:50.897Z,10.02
2023-04-02T01:20:19.656Z,9.98
2023-04-02T01:21:33.203Z,10.01
2023-04-02T01:22:41.765Z,10.03
2023-04-02T01:23:54.162Z,9.95
2023-04-02T01:24:58.658Z,9.95
2023-04-02T01:26:08.624Z,9.97
2023-04-02T01:27:39.826Z,9.95
2023-04-02T01:29:02.094Z,9.95
2023-04-02T01:30:05.317Z,9.97
2023-04-02T01:31:06.933Z,9.95
2023-04-02T01:32:13.986Z,9.98
2023-04-02T01:33:15.736Z,10.01
2023-04-02T01:34:19.049Z,9.99
2023-04-02T01:35:21.905Z,10.05
2023-04-02T01:36:32.293Z,9.99
2023-04-02T01:37:58.823Z,9.98
2023-04-02T01:39:10.733Z,9.95
2023-04-02T01:40:38.796Z,9.95
2023-04-02T01:41:45.890Z,9.98
2023-04-02T01:43:03.738Z,9.98
2023-04-02T01:44:09.885Z,9.95
2023-04-02T01:45:16.401Z,9.89
2023-04-02T01:46:28.447Z,9.92
2023-04-02T01:47:30.142Z,9.92
2023-04-02T01:48:31.947Z,9.91
2023-04-02T01:49:33.610Z,9.92
2023-04-02T01:50:39.468Z,9.94
2023-04-02T01:51:45.535Z,9.95
2023-04-02T01:52:49.860Z,9.94
2023-04-02T01:53:51.454Z,9.97
2023-04-02T01:54:53.700Z,9.98
2023-04-02T01:55:57.047Z,9.94
2023-04-02T01:56:58.683Z,9.97
2023-04-02T01:58:00.767Z,9.97
2023-04-02T01:59:04.104Z,9.95
2023-04-02T02:00:12.547Z,9.97
2023-04-02T02:01:25.024Z,9.98
2023-04-02T02:02:26.717Z,9.95
2023-04-02T02:03:28.589Z,9.98
2023-04-02T02:04:30.916Z,9.92
2023-04-02T02:05:32.674Z,9.91
2023-04-02T02:06:34.525Z,9.94
2023-04-02T02:07:36.162Z,9.97
2023-04-02T02:08:46.043Z,9.94
2023-04-02T02:09:47.862Z,9.92
2023-04-02T02:10:49.508Z,9.89
2023-04-02T02:11:51.449Z,9.88
2023-04-02T02:12:53.059Z,9.94
2023-04-02T02:14:01.779Z,9.92
2023-04-02T02:15:03.678Z,9.95
2023-04-02T02:16:06.845Z,9.95
2023-04-02T02:17:13.493Z,9.97
2023-04-02T02:18:15.100Z,9.97
2023-04-02T02:19:36.449Z,9.89
2023-04-02T02:20:38.054Z,9.91
2023-04-02T02:21:46.710Z,9.95
2023-04-02T02:22:49.223Z,9.95
2023-04-02T02:23:50.965Z,9.87
2023-04-02T02:24:53.335Z,9.84
2023-04-02T02:25:56.180Z,9.85
2023-04-02T02:27:23.695Z,9.85
2023-04-02T02:28:30.797Z,9.78
2023-04-02T02:29:32.834Z,9.78
2023-04-02T02:30:53.438Z,9.84
2023-04-02T02:31:55.038Z,9.87
2023-04-02T02:33:26.236Z,9.87
2023-04-02T02:34:35.315Z,9.85
2023-04-02T02:35:50.128Z,9.82
2023-04-02T02:36:54.045Z,9.82
2023-04-02T02:38:00.979Z,9.82
2023-04-02T02:39:13.407Z,9.79
2023-04-02T02:40:21.205Z,9.81
2023-04-02T02:41:29.006Z,9.77
2023-04-02T02:42:32.984Z,9.71
2023-04-02T02:43:34.801Z,9.65
2023-04-02T02:44:36.929Z,9.70
2023-04-02T02:45:38.993Z,9.73
2023-04-02T02:46:45.818Z,9.64
2023-04-02T02:47:47.511Z,9.61
2023-04-02T02:48:49.315Z,9.65
2023-04-02T02:49:55.371Z,9.58
2023-04-02T02:50:56.943Z,9.62
2023-04-02T02:52:18.885Z,9.62
2023-04-02T02:53:22.845Z,9.58
2023-04-02T02:54:24.466Z,9.55
2023-04-02T02:55:34.560Z,9.55
2023-04-02T02:56:38.630Z,9.52
2023-04-02T02:57:43.360Z,9.54
2023-04-02T02:58:45.010Z,9.54
2023-04-02T02:59:46.833Z,9.54
2023-04-02T03:00:48.489Z,9.47
2023-04-02T03:01:50.143Z,9.50
2023-04-02T03:02:52.888Z,9.51
2023-04-02T03:03:54.946Z,9.54
2023-04-02T03:04:56.858Z,9.55
2023-04-02T03:06:05.457Z,9.50
2023-04-02T03:07:07.139Z,9.50
2023-04-02T03:08:18.457Z,9.47
2023-04-02T03:09:28.211Z,9.41
2023-04-02T03:10:44.358Z,9.43
2023-04-02T03:12:03.528Z,9.40
2023-04-02T03:13:25.697Z,9.44
2023-04-02T03:14:41.997Z,9.41
2023-04-02T03:16:03.416Z,9.37
2023-04-02T03:17:23.853Z,9.38
2023-04-02T03:18:36.052Z,9.41
2023-04-02T03:19:44.863Z,9.31
2023-04-02T03:20:52.141Z,9.31
2023-04-02T03:22:15.409Z,9.31
2023-04-02T03:23:29.138Z,9.33
2023-04-02T03:24:54.138Z,9.33
2023-04-02T03:26:02.103Z,9.34
2023-04-02T03:27:07.470Z,9.34
2023-04-02T03:28:13.649Z,9.36
2023-04-02T03:29:19.262Z,9.34
2023-04-02T03:30:40.363Z,9.33
2023-04-02T03:31:44.707Z,9.34
2023-04-02T03:32:46.480Z,9.30
2023-04-02T03:33:50.561Z,9.33
2023-04-02T03:34:55.118Z,9.31
2023-04-02T03:36:19.047Z,9.31
2023-04-02T03:37:34.646Z,9.30
2023-04-02T03:38:41.288Z,9.31
2023-04-02T03:39:44.987Z,9.34
2023-04-02T03:40:53.730Z,9.30
2023-04-02T03:42:14.384Z,9.28
2023-04-02T03:43:16.007Z,9.37
2023-04-02T03:44:28.393Z,9.34
2023-04-02T03:45:34.341Z,9.31
2023-04-02T03:46:46.372Z,9.30
2023-04-02T03:48:12.603Z,9.33
2023-04-02T03:49:28.959Z,9.33
2023-04-02T03:50:33.637Z,9.31
2023-04-02T03:51:47.088Z,9.34
2023-04-02T03:52:48.743Z,9.36
2023-04-02T03:53:50.330Z,9.38
2023-04-02T03:54:53.776Z,9.43
2023-04-02T03:55:56.668Z,9.38
2023-04-02T03:56:58.322Z,9.41
2023-04-02T03:58:04.776Z,9.44
2023-04-02T03:59:18.532Z,9.46
2023-04-02T04:00:39.713Z,9.50
2023-04-02T04:01:49.346Z,9.47
2023-04-02T04:02:57.488Z,9.44
2023-04-02T04:04:05.509Z,9.47
2023-04-02T04:05:07.969Z,9.40
2023-04-02T04:06:15.672Z,9.43
2023-04-02T04:07:33.115Z,9.44
2023-04-02T04:08:42.621Z,9.44
2023-04-02T04:09:44.240Z,9.48
2023-04-02T04:10:46.029Z,9.48
2023-04-02T04:11:52.350Z,9.41
2023-04-02T04:12:55.956Z,9.48
2023-04-02T04:14:01.160Z,9.47
2023-04-02T04:15:07.826Z,9.36
2023-04-02T04:16:14.921Z,9.30
2023-04-02T04:17:24.792Z,9.26
2023-04-02T04:18:35.081Z,9.17
2023-04-02T04:20:08.281Z,9.05
2023-04-02T04:21:30.060Z,8.89
2023-04-02T04:22:33.671Z,8.79
2023-04-02T04:23:37.189Z,8.72
2023-04-02T04:24:39.479Z,8.71
2023-04-02T04:25:41.086Z,8.68
2023-04-02T04:26:44.138Z,8.66
2023-04-02T04:28:08.251Z,8.82
2023-04-02T04:29:45.737Z,8.93
2023-04-02T04:30:51.732Z,9.07
2023-04-02T04:31:56.214Z,9.16
2023-04-02T04:33:04.153Z,9.23
2023-04-02T04:34:11.260Z,9.24
2023-04-02T04:35:15.453Z,9.33
2023-04-02T04:36:28.953Z,9.46
2023-04-02T04:37:35.251Z,9.54
2023-04-02T04:38:39.429Z,9.62
2023-04-02T04:39:47.555Z,9.64
2023-04-02T04:40:54.177Z,9.73
2023-04-02T04:41:57.623Z,9.74
2023-04-02T04:43:03.091Z,9.77
2023-04-02T04:44:22.262Z,9.81
2023-04-02T04:45:28.818Z,9.78
2023-04-02T04:46:38.528Z,9.87
2023-04-02T04:47:42.827Z,9.84
2023-04-02T04:49:05.596Z,10.02
2023-04-02T04:50:37.549Z,10.23
2023-04-02T04:52:00.262Z,10.61
2023-04-02T04:53:06.569Z,10.90
2023-04-02T04:54:16.909Z,11.13
2023-04-02T04:55:35.679Z,11.14
2023-04-02T04:56:37.468Z,11.20
2023-04-02T04:57:39.126Z,11.13
2023-04-02T04:58:59.328Z,10.97
2023-04-02T05:00:20.738Z,10.97
2023-04-02T05:01:30.370Z,10.94
2023-04-02T05:02:36.005Z,10.94
2023-04-02T05:03:51.815Z,11.24
2023-04-02T05:04:53.853Z,11.58
2023-04-02T05:06:01.016Z,11.76
2023-04-02T05:07:31.836Z,12.12
2023-04-02T05:08:34.789Z,12.34
2023-04-02T05:09:52.196Z,12.43
2023-04-02T05:10:58.430Z,12.60
2023-04-02T05:12:12.200Z,12.92
2023-04-02T05:13:36.310Z,13.52
2023-04-02T05:14:41.829Z,13.80
2023-04-02T05:15:53.554Z,13.84
2023-04-02T05:16:59.164Z,13.45
2023-04-02T05:18:18.918Z,13.02
2023-04-02T05:19:35.712Z,12.61
2023-04-02T05:21:07.060Z,12.23
2023-04-02T05:22:21.748Z,12.05
2023-04-02T05:23:30.149Z,11.66
2023-04-02T05:24:48.638Z,11.75
2023-04-02T05:26:12.315Z,11.52
2023-04-02T05:27:20.183Z,11.81
2023-04-02T05:28:26.996Z,11.82
2023-04-02T05:29:31.905Z,11.68
2023-04-02T05:30:52.935Z,11.55
2023-04-02T05:32:09.519Z,11.69
2023-04-02T05:33:24.251Z,12.00
2023-04-02T05:34:27.923Z,11.92
2023-04-02T05:35:34.844Z,11.85
2023-04-02T05:36:36.592Z,11.85
2023-04-02T05:37:38.643Z,11.79
2023-04-02T05:38:44.052Z,11.59
2023-04-02T05:39:46.237Z,11.68
2023-04-02T05:40:48.377Z,11.36
2023-04-02T05:41:53.053Z,11.48
2023-04-02T05:42:55.820Z,11.51
2023-04-02T05:44:16.579Z,11.48
2023-04-02T05:45:25.108Z,11.42
2023-04-02T05:46:28.324Z,11.38
2023-04-02T05:47:31.435Z,11.52
2023-04-02T05:48:39.131Z,11.59
2023-04-02T05:49:44.073Z,11.97
2023-04-02T05:50:49.614Z,12.60
2023-04-02T05:51:52.749Z,13.20
2023-04-02T05:53:08.849Z,13.74
2023-04-02T05:54:26.268Z,13.86
2023-04-02T05:55:55.029Z,13.80
2023-04-02T05:57:00.628Z,13.58
2023-04-02T05:58:33.969Z,13.49
2023-04-02T05:59:35.755Z,13.16
2023-04-02T06:00:40.016Z,13.01
2023-04-02T06:02:06.586Z,12.76
2023-04-02T06:03:16.346Z,12.73
2023-04-02T06:04:28.245Z,12.48
2023-04-02T06:05:34.584Z,12.37
2023-04-02T06:06:39.258Z,12.32
2023-04-02T06:07:46.903Z,12.33
2023-04-02T06:08:58.999Z,12.23
2023-04-02T06:10:00.796Z,12.33
2023-04-02T06:11:13.912Z,12.29
2023-04-02T06:12:52.742Z,12.23
2023-04-02T06:13:54.443Z,12.27
2023-04-02T06:14:56.119Z,12.33
2023-04-02T06:15:57.767Z,12.51
2023-04-02T06:16:59.425Z,12.40
2023-04-02T06:18:09.087Z,12.50
2023-04-02T06:19:22.884Z,12.32
2023-04-02T06:20:24.666Z,12.40
2023-04-02T06:21:26.275Z,12.34
2023-04-02T06:22:34.670Z,12.30
2023-04-02T06:23:45.411Z,12.26
2023-04-02T06:24:47.513Z,12.33
2023-04-02T06:25:53.350Z,12.34
2023-04-02T06:26:58.169Z,12.40
2023-04-02T06:28:00.687Z,12.44
2023-04-02T06:29:24.195Z,12.57
2023-04-02T06:30:28.801Z,12.63
2023-04-02T06:31:42.707Z,12.58
2023-04-02T06:32:44.291Z,12.53
2023-04-02T06:33:45.943Z,12.65
2023-04-02T06:34:47.639Z,12.71
2023-04-02T06:35:51.009Z,12.65
2023-04-02T06:36:58.853Z,12.60
2023-04-02T06:38:01.777Z,12.67
2023-04-02T06:39:06.729Z,12.76
2023-04-02T06:40:29.609Z,12.64
2023-04-02T06:41:31.278Z,12.89
2023-04-02T06:42:37.804Z,12.99
2023-04-02T06:44:00.453Z,13.11
2023-04-02T06:45:02.317Z,12.98
2023-04-02T06:46:10.007Z,13.07
2023-04-02T06:47:31.927Z,13.22
2023-04-02T06:48:33.569Z,13.35
2023-04-02T06:49:35.468Z,13.34
2023-04-02T06:50:49.131Z,13.53
2023-04-02T06:51:52.025Z,13.49
2023-04-02T06:53:00.377Z,13.60
2023-04-02T06:54:01.988Z,13.65
2023-04-02T06:55:44.111Z,13.69
2023-04-02T06:56:52.805Z,13.52
2023-04-02T06:57:54.521Z,13.50
2023-04-02T06:58:56.142Z,13.56
2023-04-02T06:59:57.741Z,13.52
2023-04-02T07:00:59.393Z,13.56
2023-04-02T07:02:06.576Z,13.34
2023-04-02T07:03:28.399Z,13.49
2023-04-02T07:04:30.069Z,13.48
2023-04-02T07:05:31.944Z,13.53
2023-04-02T07:06:33.630Z,13.42
2023-04-02T07:07:35.280Z,13.43
2023-04-02T07:08:36.930Z,13.42
2023-04-02T07:09:38.542Z,13.34
2023-04-02T07:10:40.231Z,13.34
2023-04-02T07:11:41.891Z,13.19
2023-04-02T07:12:43.557Z,13.22
2023-04-02T07:13:45.343Z,13.35
2023-04-02T07:14:48.066Z,13.38
2023-04-02T07:15:51.340Z,13.35
2023-04-02T07:16:53.237Z,13.39
2023-04-02T07:17:57.590Z,13.32
2023-04-02T07:18:59.446Z,13.38
2023-04-02T07:20:01.154Z,13.43
2023-04-02T07:21:02.921Z,13.55
2023-04-02T07:22:04.562Z,13.60
2023-04-02T07:23:06.345Z,13.56
2023-04-02T07:24:08.070Z,13.59
2023-04-02T07:25:10.563Z,13.58
2023-04-02T07:26:17.423Z,13.52
2023-04-02T07:27:19.058Z,13.46
2023-04-02T07:28:22.548Z,13.32
2023-04-02T07:29:25.465Z,13.45
2023-04-02T07:30:27.112Z,13.29
2023-04-02T07:31:29.440Z,13.35
2023-04-02T07:32:31.233Z,13.35
2023-04-02T07:33:32.837Z,13.29
2023-04-02T07:34:34.448Z,13.36
2023-04-02T07:35:37.057Z,13.39
2023-04-02T07:36:38.933Z,13.34
2023-04-02T07:37:40.782Z,13.40
2023-04-02T07:38:42.430Z,13.42
2023-04-02T07:39:44.104Z,13.40
2023-04-02T07:40:45.823Z,13.55
2023-04-02T07:41:52.084Z,13.59
2023-04-02T07:42:53.730Z,13.83
2023-04-02T07:43:55.443Z,13.84
2023-04-02T07:44:57.027Z,14.00
2023-04-02T07:46:00.004Z,14.04
2023-04-02T07:47:01.828Z,14.06
2023-04-02T07:48:11.711Z,13.97
2023-04-02T07:49:13.355Z,13.99
2023-04-02T07:50:14.998Z,13.83
2023-04-02T07:51:24.109Z,13.71
2023-04-02T07:52:25.901Z,13.70
2023-04-02T07:53:30.079Z,13.60
2023-04-02T07:54:31.795Z,13.60
2023-04-02T07:55:33.558Z,13.45
2023-04-02T07:56:35.453Z,13.34
2023-04-02T07:57:50.662Z,13.45
2023-04-02T07:58:52.281Z,13.55
2023-04-02T07:59:56.598Z,13.60
2023-04-02T08:00:58.834Z,13.42
2023-04-02T08:02:00.552Z,13.52
2023-04-02T08:03:02.313Z,13.56
2023-04-02T08:04:04.973Z,13.67
2023-04-02T08:05:07.825Z,13.67
2023-04-02T08:06:09.652Z,13.69
2023-04-02T08:07:11.270Z,13.58
2023-04-02T08:08:12.914Z,13.65
2023-04-02T08:09:15.650Z,13.58
2023-04-02T08:10:19.191Z,13.65
2023-04-02T08:11:20.854Z,13.56
2023-04-02T08:12:22.534Z,13.50
2023-04-02T08:13:24.293Z,13.49
2023-04-02T08:14:25.875Z,13.46
2023-04-02T08:15:27.482Z,13.38
2023-04-02T08:16:29.166Z,13.26
2023-04-02T08:17:31.339Z,13.22
2023-04-02T08:18:33.133Z,13.28
2023-04-02T08:19:44.441Z,13.36
2023-04-02T08:20:53.563Z,13.45
2023-04-02T08:21:55.334Z,13.38
2023-04-02T08:22:58.338Z,13.28
2023-04-02T08:23:59.930Z,13.40
2023-04-02T08:25:01.606Z,13.45
2023-04-02T08:26:03.413Z,13.43
2023-04-02T08:27:05.146Z,13.55
2023-04-02T08:28:07.022Z,13.58
2023-04-02T08:29:08.657Z,13.36
2023-04-02T08:30:11.720Z,13.36
2023-04-02T08:31:13.580Z,13.43
2023-04-02T08:32:18.576Z,13.42
2023-04-02T08:33:20.401Z,13.36
2023-04-02T08:34:22.010Z,13.42
2023-04-02T08:35:23.821Z,13.48
2023-04-02T08:36:31.193Z,13.56
2023-04-02T08:37:32.813Z,13.52
2023-04-02T08:38:34.419Z,13.49
2023-04-02T08:39:36.216Z,13.53
2023-04-02T08:40:41.980Z,13.55
2023-04-02T08:42:14.716Z,13.53
2023-04-02T08:43:23.552Z,13.66
2023-04-02T08:44:43.417Z,13.69
2023-04-02T08:46:08.156Z,13.81
2023-04-02T08:47:10.863Z,13.84
2023-04-02T08:48:12.925Z,13.94
2023-04-02T08:49:16.682Z,13.87
2023-04-02T08:50:38.043Z,13.81
2023-04-02T08:51:39.759Z,13.91
2023-04-02T08:52:41.680Z,13.99
2023-04-02T08:53:43.265Z,13.79
2023-04-02T08:54:44.866Z,13.73
2023-04-02T08:55:55.824Z,13.71
2023-04-02T08:57:07.374Z,13.67
2023-04-02T08:58:13.774Z,13.69
2023-04-02T08:59:32.186Z,13.69
2023-04-02T09:00:38.032Z,13.71
2023-04-02T09:02:09.152Z,13.55
2023-04-02T09:03:36.877Z,13.49
2023-04-02T09:04:38.704Z,13.50
2023-04-02T09:05:42.885Z,13.52
2023-04-02T09:06:44.638Z,13.60
2023-04-02T09:07:47.366Z,13.62
2023-04-02T09:08:49.656Z,13.65
2023-04-02T09:09:51.398Z,13.67
2023-04-02T09:11:22.346Z,13.74
2023-04-02T09:12:28.771Z,13.66
2023-04-02T09:13:31.308Z,13.73
2023-04-02T09:14:41.817Z,13.67
2023-04-02T09:15:43.475Z,13.59
2023-04-02T09:16:56.191Z,13.65
2023-04-02T09:18:01.203Z,13.67
2023-04-02T09:19:02.880Z,13.70
2023-04-02T09:20:22.685Z,13.74
2023-04-02T09:21:35.882Z,13.79
2023-04-02T09:22:38.548Z,13.77
2023-04-02T09:23:40.132Z,13.81
2023-04-02T09:24:41.751Z,13.74
2023-04-02T09:25:54.087Z,13.73
2023-04-02T09:27:03.138Z,13.73
2023-04-02T09:28:05.065Z,13.50
2023-04-02T09:29:12.546Z,13.66
2023-04-02T09:30:24.778Z,13.73
2023-04-02T09:31:35.123Z,13.81
2023-04-02T09:32:52.353Z,13.74
2023-04-02T09:33:54.791Z,13.81
2023-04-02T09:35:32.690Z,13.63
2023-04-02T09:36:38.986Z,13.74
2023-04-02T09:37:40.684Z,13.66
2023-04-02T09:38:43.566Z,13.74
2023-04-02T09:39:45.270Z,13.60
2023-04-02T09:40:49.806Z,13.76
2023-04-02T09:42:02.785Z,13.69
2023-04-02T09:43:14.617Z,13.84
2023-04-02T09:44:23.832Z,13.90
2023-04-02T09:45:25.504Z,13.94
2023-04-02T09:46:27.108Z,13.87
2023-04-02T09:47:28.908Z,13.86
2023-04-02T09:48:48.164Z,13.99
2023-04-02T09:49:49.760Z,13.97
2023-04-02T09:50:51.422Z,14.03
2023-04-02T09:52:11.389Z,14.01
2023-04-02T09:53:30.351Z,14.09
2023-04-02T09:54:32.041Z,14.11
2023-04-02T09:55:34.869Z,14.25
2023-04-02T09:56:37.460Z,14.27
2023-04-02T09:57:39.151Z,14.09
2023-04-02T09:58:41.923Z,13.93
2023-04-02T09:59:43.584Z,13.81
2023-04-02T10:00:51.893Z,13.83
2023-04-02T10:01:53.494Z,13.84
2023-04-02T10:03:03.629Z,13.90
2023-04-02T10:04:07.231Z,13.94
2023-04-02T10:05:39.372Z,14.04
2023-04-02T10:06:48.988Z,14.18
2023-04-02T10:07:54.165Z,14.20
2023-04-02T10:08:55.832Z,14.14
2023-04-02T10:09:59.359Z,14.14
2023-04-02T10:11:02.576Z,14.17
2023-04-02T10:12:10.532Z,14.24
2023-04-02T10:13:21.110Z,14.32
2023-04-02T10:14:25.899Z,14.42
2023-04-02T10:15:40.549Z,14.46
2023-04-02T10:16:44.164Z,14.46
2023-04-02T10:17:45.856Z,14.48
2023-04-02T10:19:13.435Z,14.55
2023-04-02T10:20:20.170Z,14.55
2023-04-02T10:21:40.421Z,14.65
2023-04-02T10:22:42.056Z,14.64
2023-04-02T10:23:43.752Z,14.76
2023-04-02T10:24:45.435Z,14.68
2023-04-02T10:26:01.576Z,14.65
2023-04-02T10:27:29.805Z,14.62
2023-04-02T10:28:50.890Z,14.69
2023-04-02T10:30:10.389Z,14.85
2023-04-02T10:31:26.534Z,15.00
2023-04-02T10:32:58.008Z,15.02
2023-04-02T10:34:02.690Z,15.07
2023-04-02T10:35:16.980Z,15.16
2023-04-02T10:36:39.979Z,15.20
2023-04-02T10:37:47.322Z,15.26
2023-04-02T10:38:51.344Z,15.27
2023-04-02T10:39:58.663Z,15.33
2023-04-02T10:41:04.299Z,15.32
2023-04-02T10:42:10.433Z,15.33
2023-04-02T10:43:14.721Z,15.22
2023-04-02T10:44:31.329Z,15.23
2023-04-02T10:45:53.228Z,15.29
2023-04-02T10:47:06.653Z,15.26
2023-04-02T10:48:23.310Z,15.09
2023-04-02T10:49:39.825Z,15.07
2023-04-02T10:51:06.938Z,14.95
2023-04-02T10:52:18.370Z,15.02
2023-04-02T10:53:21.540Z,14.82
2023-04-02T10:54:43.494Z,14.91
2023-04-02T10:56:08.911Z,14.78
2023-04-02T10:57:31.871Z,14.83
2023-04-02T10:58:34.504Z,14.92
2023-04-02T10:59:38.340Z,14.85
2023-04-02T11:00:39.956Z,14.85
2023-04-02T11:01:41.834Z,14.82
2023-04-02T11:02:54.481Z,14.86
2023-04-02T11:04:05.664Z,14.85
2023-04-02T11:05:13.972Z,14.93
2023-04-02T11:06:24.442Z,14.92
2023-04-02T11:07:27.159Z,15.00
2023-04-02T11:08:40.024Z,14.98
2023-04-02T11:09:42.840Z,15.00
2023-04-02T11:10:53.504Z,15.10
2023-04-02T11:11:56.496Z,15.10
2023-04-02T11:13:02.336Z,14.93
2023-04-02T11:14:11.509Z,15.09
2023-04-02T11:15:19.419Z,15.05
2023-04-02T11:16:21.508Z,14.91
2023-04-02T11:17:23.173Z,14.98
2023-04-02T11:18:36.783Z,14.92
2023-04-02T11:19:38.421Z,14.91
2023-04-02T11:20:43.849Z,14.89
2023-04-02T11:22:24.732Z,14.88
2023-04-02T11:23:28.193Z,14.83
2023-04-02T11:24:38.611Z,14.85
2023-04-02T11:25:41.433Z,14.98
2023-04-02T11:26:43.894Z,14.89
2023-04-02T11:27:45.542Z,14.99
2023-04-02T11:28:47.139Z,15.05
2023-04-02T11:30:04.182Z,14.92
2023-04-02T11:31:05.835Z,15.07
2023-04-02T11:32:29.134Z,14.95
2023-04-02T11:33:38.247Z,14.92
2023-04-02T11:34:42.130Z,14.98
2023-04-02T11:35:44.299Z,15.03
2023-04-02T11:36:55.085Z,14.88
2023-04-02T11:38:39.412Z,15.10
2023-04-02T11:39:54.086Z,15.30
2023-04-02T11:40:59.331Z,15.42
2023-04-02T11:42:03.117Z,15.50
2023-04-02T11:43:32.779Z,15.56
2023-04-02T11:44:34.425Z,15.60
2023-04-02T11:45:52.753Z,15.61
2023-04-02T11:47:21.322Z,15.66
2023-04-02T11:48:23.244Z,15.63
2023-04-02T11:49:39.905Z,15.57
2023-04-02T11:50:45.791Z,15.54
2023-04-02T11:51:49.693Z,15.46
2023-04-02T11:52:54.193Z,15.33
2023-04-02T11:53:58.482Z,15.23
2023-04-02T11:55:02.197Z,15.25
2023-04-02T11:56:17.079Z,15.20
2023-04-02T11:57:52.332Z,15.37
2023-04-02T11:59:24.068Z,15.32
2023-04-02T12:00:32.017Z,15.37
2023-04-02T12:02:11.363Z,15.36
2023-04-02T12:03:29.826Z,15.36
2023-04-02T12:04:43.415Z,15.40
2023-04-02T12:05:51.269Z,15.42
2023-04-02T12:07:12.868Z,15.40
2023-04-02T12:09:12.679Z,15.42
2023-04-02T12:10:17.912Z,15.42
2023-04-02T12:11:19.848Z,15.42
2023-04-02T12:12:24.582Z,15.51
2023-04-02T12:13:41.617Z,15.63
2023-04-02T12:14:45.992Z,15.70
2023-04-02T12:15:49.159Z,15.70
2023-04-02T12:16:52.729Z,15.58
2023-04-02T12:18:02.844Z,15.61
2023-04-02T12:19:04.716Z,15.54
2023-04-02T12:20:10.016Z,15.58
2023-04-02T12:21:18.467Z,15.60
2023-04-02T12:22:28.045Z,15.53
2023-04-02T12:23:31.523Z,15.46
2023-04-02T12:24:33.427Z,15.50
2023-04-02T12:25:40.271Z,15.51
2023-04-02T12:26:42.380Z,15.50
2023-04-02T12:27:46.882Z,15.42
2023-04-02T12:28:48.922Z,15.27
2023-04-02T12:29:51.680Z,15.42
2023-04-02T12:30:53.393Z,15.42
2023-04-02T12:31:56.105Z,15.51
2023-04-02T12:32:57.996Z,15.53
2023-04-02T12:33:59.842Z,15.56
2023-04-02T12:35:01.626Z,15.54
2023-04-02T12:36:15.802Z,15.54
2023-04-02T12:37:22.903Z,15.58
2023-04-02T12:38:33.543Z,15.58
2023-04-02T12:39:35.424Z,15.66
2023-04-02T12:40:38.254Z,15.76
2023-04-02T12:41:40.940Z,15.80
2023-04-02T12:42:42.564Z,15.83
2023-04-02T12:43:44.406Z,15.84
2023-04-02T12:44:49.311Z,15.83
2023-04-02T12:46:17.396Z,15.88
2023-04-02T12:47:19.375Z,16.02
2023-04-02T12:48:21.090Z,16.11
2023-04-02T12:49:25.622Z,16.12
2023-04-02T12:50:27.302Z,16.08
2023-04-02T12:51:28.920Z,16.07
2023-04-02T12:52:30.647Z,16.01
2023-04-02T12:53:37.973Z,15.83
2023-04-02T12:54:51.340Z,15.86
2023-04-02T12:55:53.116Z,15.80
2023-04-02T12:56:56.604Z,15.77
2023-04-02T12:57:59.717Z,15.77
2023-04-02T12:59:01.554Z,15.83
2023-04-02T13:00:06.686Z,15.86
2023-04-02T13:01:23.844Z,15.80
2023-04-02T13:02:29.971Z,15.70
2023-04-02T13:03:31.594Z,15.70
2023-04-02T13:04:33.219Z,15.78
2023-04-02T13:05:57.435Z,15.93
2023-04-02T13:06:59.609Z,15.98
2023-04-02T13:08:02.217Z,15.88
2023-04-02T13:09:05.553Z,15.97
2023-04-02T13:10:23.769Z,15.97
2023-04-02T13:11:39.253Z,15.76
2023-04-02T13:12:41.143Z,15.64
2023-04-02T13:13:44.140Z,15.66
2023-04-02T13:14:46.885Z,15.73
2023-04-02T13:16:00.468Z,15.57
2023-04-02T13:17:02.488Z,15.70
2023-04-02T13:18:13.346Z,15.71
2023-04-02T13:19:18.205Z,15.74
2023-04-02T13:20:41.827Z,15.80
2023-04-02T13:21:45.414Z,15.83
2023-04-02T13:22:47.060Z,15.84
2023-04-02T13:23:48.789Z,15.80
2023-04-02T13:24:50.496Z,15.67
2023-04-02T13:25:52.295Z,15.63
2023-04-02T13:26:56.736Z,15.54
2023-04-02T13:27:58.728Z,15.40
2023-04-02T13:29:00.399Z,15.35
2023-04-02T13:30:14.141Z,15.10
2023-04-02T13:31:16.950Z,15.13
2023-04-02T13:32:19.839Z,15.13
2023-04-02T13:33:22.172Z,15.20
2023-04-02T13:34:24.043Z,15.26
2023-04-02T13:35:27.265Z,15.26
2023-04-02T13:36:29.618Z,15.29
2023-04-02T13:37:31.793Z,15.25
2023-04-02T13:38:33.570Z,15.09
2023-04-02T13:39:35.462Z,15.19
2023-04-02T13:40:37.458Z,15.22
2023-04-02T13:41:44.449Z,15.36
2023-04-02T13:42:47.168Z,15.46
2023-04-02T13:43:50.689Z,15.56
2023-04-02T13:44:52.621Z,15.63
2023-04-02T13:45:54.737Z,15.74
2023-04-02T13:46:56.857Z,15.77
2023-04-02T13:48:01.547Z,15.71
2023-04-02T13:49:03.517Z,15.67
2023-04-02T13:50:05.732Z,15.61
2023-04-02T13:51:09.030Z,15.58
2023-04-02T13:52:14.113Z,15.43
2023-04-02T13:53:22.380Z,15.46
2023-04-02T13:54:41.320Z,15.32
2023-04-02T13:55:43.104Z,15.26
2023-04-02T13:56:45.143Z,15.35
2023-04-02T13:57:47.447Z,15.37
2023-04-02T13:58:49.362Z,15.46
2023-04-02T13:59:51.482Z,15.47
2023-04-02T14:00:53.545Z,15.58
2023-04-02T14:01:58.002Z,15.61
2023-04-02T14:03:05.817Z,15.67
2023-04-02T14:04:07.826Z,15.67
2023-04-02T14:05:48.583Z,15.67
2023-04-02T14:07:03.905Z,15.68
2023-04-02T14:08:09.389Z,15.70
2023-04-02T14:09:22.254Z,15.71
2023-04-02T14:10:42.378Z,15.57
2023-04-02T14:12:03.716Z,15.49
2023-04-02T14:13:18.343Z,15.43
2023-04-02T14:14:38.317Z,15.37
2023-04-02T14:15:55.172Z,15.37
2023-04-02T14:17:12.057Z,15.37
2023-04-02T14:18:38.120Z,15.46
2023-04-02T14:19:58.216Z,15.46
2023-04-02T14:21:29.255Z,15.54
2023-04-02T14:22:49.811Z,15.54
2023-04-02T14:24:10.130Z,15.66
2023-04-02T14:25:20.904Z,15.67
2023-04-02T14:26:39.804Z,15.70
2023-04-02T14:28:03.745Z,15.80
2023-04-02T14:29:21.383Z,15.84
2023-04-02T14:30:45.114Z,15.87
2023-04-02T14:31:47.440Z,15.76
2023-04-02T14:32:55.047Z,15.67
2023-04-02T14:34:08.589Z,15.57
2023-04-02T14:35:16.329Z,15.39
2023-04-02T14:36:57.753Z,14.99
2023-04-02T14:38:22.311Z,14.83
2023-04-02T14:39:36.574Z,14.81
2023-04-02T14:41:10.045Z,14.67
2023-04-02T14:42:17.280Z,14.54
2023-04-02T14:43:47.897Z,14.46
2023-04-02T14:44:51.970Z,14.37
2023-04-02T14:45:57.234Z,14.35
2023-04-02T14:47:06.630Z,14.31
2023-04-02T14:48:21.949Z,14.11